Time;durP1;ratioP1;P1;durP2;ratioP2;P2;SDS_P1;SDS_P2;PMS_P1;PMS_P2;Temp;Humidity;BMP_temperature;BMP_pressure;BME280_temperature;BME280_humidity;BME280_pressure;Samples;Min_cycle;Max_cycle;Signal;HPM_P1;HPM_P2
2022/07/07 00:02:08;;;;;;;3.10;0.90;;;;;;;11.39;68.91;100948.52;1783545;80;21046;-82
2022/07/07 00:04:35;;;;;;;2.72;0.98;;;;;;;11.47;69.09;100946.94;1783488;80;21017;-86
2022/07/07 00:07:03;;;;;;;1.72;0.90;;;;;;;11.56;69.12;100948.44;1783518;80;21001;-82
2022/07/07 00:09:30;;;;;;;1.47;0.90;;;;;;;11.59;68.98;100943.94;1767017;80;21098;-86
2022/07/07 00:11:58;;;;;;;1.55;0.85;;;;;;;11.58;68.82;100947.48;1778704;80;21005;-90
2022/07/07 00:14:25;;;;;;;1.25;0.88;;;;;;;11.60;68.88;100940.39;1756069;80;21029;-82
2022/07/07 00:16:53;;;;;;;2.02;0.90;;;;;;;11.60;69.03;100944.79;1762333;80;22152;-82
2022/07/07 00:19:20;;;;;;;2.73;0.90;;;;;;;11.58;69.13;100940.92;1766107;80;21069;-82
2022/07/07 00:21:47;;;;;;;2.17;0.97;;;;;;;11.58;69.23;100941.34;1768467;80;21063;-82
2022/07/07 00:24:14;;;;;;;2.73;0.90;;;;;;;11.57;68.85;100944.43;1784791;80;21017;-82
2022/07/07 00:26:41;;;;;;;3.77;1.00;;;;;;;11.56;69.22;100939.25;1787652;80;20986;-82
2022/07/07 00:29:08;;;;;;;1.15;0.62;;;;;;;11.56;69.17;100937.48;1783526;80;20993;-82
2022/07/07 00:31:36;;;;;;;3.20;0.70;;;;;;;11.58;69.13;100936.98;1769786;80;21020;-81
2022/07/07 00:34:03;;;;;;;2.75;1.07;;;;;;;11.56;69.11;100935.31;1787505;80;21107;-82
2022/07/07 00:36:31;;;;;;;3.30;1.30;;;;;;;11.57;69.29;100934.39;1787461;80;21064;-82
2022/07/07 00:38:58;;;;;;;1.35;0.88;;;;;;;11.57;69.49;100932.62;1787229;80;20985;-82
2022/07/07 00:41:25;;;;;;;1.65;0.98;;;;;;;11.56;69.74;100934.85;1787644;80;21021;-82
2022/07/07 00:43:52;;;;;;;2.70;0.90;;;;;;;11.60;69.84;100934.29;1787326;80;20993;-87
2022/07/07 00:46:20;;;;;;;3.12;1.00;;;;;;;11.66;70.04;100930.14;1782245;80;21099;-82
2022/07/07 00:48:47;;;;;;;2.67;1.00;;;;;;;11.68;70.06;100924.39;1771241;80;21009;-82
2022/07/07 00:51:15;;;;;;;2.05;0.98;;;;;;;11.72;70.16;100930.39;1787577;80;21539;-83
2022/07/07 00:53:42;;;;;;;1.72;1.02;;;;;;;11.77;70.22;100931.10;1787281;80;21499;-82
2022/07/07 00:56:09;;;;;;;1.80;0.95;;;;;;;11.81;70.45;100929.64;1787647;80;21029;-82
2022/07/07 00:58:37;;;;;;;2.95;1.17;;;;;;;11.83;70.75;100932.20;1787291;80;21130;-82
2022/07/07 01:01:04;;;;;;;2.73;0.90;;;;;;;11.84;70.92;100928.22;1787546;80;21481;-88
2022/07/07 01:03:31;;;;;;;4.05;1.20;;;;;;;11.90;70.94;100924.56;1787280;80;21068;-82
2022/07/07 01:05:59;;;;;;;4.05;1.10;;;;;;;11.91;70.74;100921.02;1787548;80;21013;-83
2022/07/07 01:08:27;;;;;;;3.17;1.10;;;;;;;11.92;70.70;100921.90;1787210;80;21005;-82
2022/07/07 01:10:54;;;;;;;1.10;0.90;;;;;;;11.89;70.52;100923.28;1787518;80;21101;-91
2022/07/07 01:13:21;;;;;;;2.37;1.20;;;;;;;11.87;70.49;100927.76;1787193;80;21029;-83
2022/07/07 01:15:48;;;;;;;4.12;1.05;;;;;;;11.82;70.49;100926.09;1787346;80;21029;-82
2022/07/07 01:18:15;;;;;;;2.47;1.00;;;;;;;11.86;70.66;100922.08;1787187;80;21017;-86
2022/07/07 01:20:47;;;;;;;3.83;1.17;;;;;;;11.90;70.58;100919.31;1778853;80;21017;-82
2022/07/07 01:23:15;;;;;;;3.50;1.25;;;;;;;11.87;70.33;100919.41;1775514;80;22046;-82
2022/07/07 01:25:42;;;;;;;2.53;1.17;;;;;;;11.84;70.11;100919.49;1787142;80;20913;-82
2022/07/07 01:28:09;;;;;;;2.60;1.20;;;;;;;11.76;70.19;100911.86;1787258;80;21016;-84
2022/07/07 01:30:36;;;;;;;2.30;1.20;;;;;;;11.75;70.52;100904.91;1787523;80;21475;-88
2022/07/07 01:33:03;;;;;;;2.23;1.20;;;;;;;11.72;70.74;100907.64;1787280;80;21025;-84
2022/07/07 01:35:30;;;;;;;3.22;1.07;;;;;;;11.68;70.77;100900.76;1787375;80;21109;-82
2022/07/07 01:37:57;;;;;;;1.23;1.10;;;;;;;11.66;70.91;100901.26;1787328;80;21483;-83
2022/07/07 01:40:24;;;;;;;3.53;1.17;;;;;;;11.63;70.89;100901.36;1787516;80;21017;-86
2022/07/07 01:42:51;;;;;;;4.15;1.77;;;;;;;11.58;71.17;100899.34;1787296;80;21068;-82
2022/07/07 01:45:18;;;;;;;2.60;1.50;;;;;;;11.61;71.69;100892.67;1787333;80;21005;-81
2022/07/07 01:47:45;;;;;;;3.02;1.70;;;;;;;11.64;71.68;100894.34;1787169;80;21125;-82
2022/07/07 01:50:12;;;;;;;4.37;1.37;;;;;;;11.64;71.92;100893.02;1787253;80;20981;-81
2022/07/07 01:52:39;;;;;;;1.75;1.32;;;;;;;11.64;71.84;100896.97;1787202;80;20986;-83
2022/07/07 01:55:07;;;;;;;3.90;1.60;;;;;;;11.61;71.98;100894.87;1787330;80;21456;-87
2022/07/07 01:57:34;;;;;;;4.60;1.40;;;;;;;11.60;71.97;100895.75;1787162;80;20997;-87
2022/07/07 02:00:01;;;;;;;2.90;1.35;;;;;;;11.59;71.95;100894.05;1787185;80;21129;-81
2022/07/07 02:02:28;;;;;;;3.80;1.45;;;;;;;11.60;71.97;100885.25;1787216;80;21030;-81
2022/07/07 02:04:56;;;;;;;3.13;1.17;;;;;;;11.65;72.13;100882.95;1787183;80;21076;-82
2022/07/07 02:07:23;;;;;;;2.03;1.30;;;;;;;11.64;72.03;100883.41;1787284;80;21571;-81
2022/07/07 02:09:50;;;;;;;4.40;1.57;;;;;;;11.60;71.96;100884.41;1787611;80;21189;-81
2022/07/07 02:12:17;;;;;;;6.03;1.30;;;;;;;11.54;72.19;100877.59;1786703;80;21117;-82
2022/07/07 02:14:45;;;;;;;3.02;1.25;;;;;;;11.53;72.13;100881.59;1783510;80;21005;-82
2022/07/07 02:17:12;;;;;;;2.08;1.00;;;;;;;11.49;72.18;100882.13;1783571;80;20994;-84
2022/07/07 02:19:39;;;;;;;3.12;1.15;;;;;;;11.47;72.11;100881.77;1783585;80;21018;-82
2022/07/07 02:22:06;;;;;;;2.90;1.10;;;;;;;11.44;72.20;100884.50;1761737;80;21002;-87
2022/07/07 02:24:33;;;;;;;2.00;1.50;;;;;;;11.37;72.15;100881.23;1783639;80;21166;-82
2022/07/07 02:27:00;;;;;;;2.73;1.40;;;;;;;11.36;72.41;100874.25;1783492;80;21017;-82
2022/07/07 02:29:27;;;;;;;1.93;1.20;;;;;;;11.33;72.38;100876.55;1783699;80;21529;-83
2022/07/07 02:31:55;;;;;;;3.20;1.13;;;;;;;11.28;72.21;100878.46;1783664;80;20987;-82
2022/07/07 02:34:22;;;;;;;2.90;1.20;;;;;;;11.23;72.19;100880.37;1783957;80;20990;-82
2022/07/07 02:36:49;;;;;;;2.73;1.00;;;;;;;11.16;72.02;100880.14;1783570;80;21741;-82
2022/07/07 02:39:16;;;;;;;3.15;1.30;;;;;;;11.16;72.54;100872.27;1783860;80;21046;-82
2022/07/07 02:41:43;;;;;;;2.00;1.20;;;;;;;11.16;72.37;100876.21;1783927;80;21024;-82
2022/07/07 02:44:10;;;;;;;2.73;1.37;;;;;;;11.11;72.48;100874.19;1783549;80;21005;-82
2022/07/07 02:46:37;;;;;;;1.20;0.93;;;;;;;11.07;72.55;100872.58;1783986;80;21030;-81
2022/07/07 02:49:04;;;;;;;3.43;1.03;;;;;;;11.07;72.81;100873.89;1783610;80;21287;-87
2022/07/07 02:51:31;;;;;;;1.55;0.90;;;;;;;11.04;72.75;100874.84;1783734;80;21021;-86
2022/07/07 02:53:58;;;;;;;1.77;1.20;;;;;;;11.01;72.75;100872.77;1783599;80;21508;-82
2022/07/07 02:56:25;;;;;;;1.63;1.13;;;;;;;10.97;72.78;100876.38;1784016;80;21053;-83
2022/07/07 02:58:52;;;;;;;3.00;1.53;;;;;;;10.94;72.83;100874.71;1783609;80;21029;-86
2022/07/07 03:01:19;;;;;;;3.47;1.63;;;;;;;10.93;73.01;100876.48;1783809;80;21109;-82
2022/07/07 03:03:46;;;;;;;1.90;1.13;;;;;;;10.97;73.23;100878.55;1783626;80;20986;-82
2022/07/07 03:06:13;;;;;;;2.90;1.60;;;;;;;11.01;73.43;100872.31;1783830;80;21069;-84
2022/07/07 03:08:40;;;;;;;4.10;1.47;;;;;;;11.04;73.61;100875.30;1783672;80;21010;-82
2022/07/07 03:11:07;;;;;;;2.70;1.50;;;;;;;11.05;73.79;100872.61;1783862;80;21032;-87
2022/07/07 03:13:34;;;;;;;2.73;1.70;;;;;;;11.08;73.81;100878.22;1783646;80;21503;-82
2022/07/07 03:16:01;;;;;;;2.80;1.70;;;;;;;11.07;73.92;100878.67;1783663;80;21509;-82
2022/07/07 03:18:28;;;;;;;3.37;1.90;;;;;;;11.09;73.85;100874.25;1783786;80;20994;-86
2022/07/07 03:20:55;;;;;;;4.13;2.30;;;;;;;11.14;74.23;100868.41;1772220;80;21036;-83
2022/07/07 03:23:22;;;;;;;3.83;2.40;;;;;;;11.20;74.27;100867.81;1773864;80;21526;-85
2022/07/07 03:25:49;;;;;;;4.57;2.10;;;;;;;11.26;74.65;100861.05;1783623;80;21123;-82
2022/07/07 03:28:16;;;;;;;3.77;2.07;;;;;;;11.33;74.76;100866.05;1783800;80;20986;-82
2022/07/07 03:30:43;;;;;;;2.65;2.00;;;;;;;11.37;74.71;100858.92;1783578;80;21021;-82
2022/07/07 03:33:10;;;;;;;6.00;2.30;;;;;;;11.39;74.77;100859.28;1783885;80;21013;-82
2022/07/07 03:35:38;;;;;;;2.83;2.27;;;;;;;11.43;74.78;100862.66;1783623;80;21021;-82
2022/07/07 03:38:05;;;;;;;3.97;2.60;;;;;;;11.44;74.80;100856.48;1783515;80;21955;-84
2022/07/07 03:40:34;;;;;;;3.47;2.20;;;;;;;11.47;74.85;100859.46;1783756;80;21021;-83
2022/07/07 03:43:01;;;;;;;4.03;2.27;;;;;;;11.51;75.22;100853.22;1783940;80;21033;-82
2022/07/07 03:45:28;;;;;;;3.33;2.10;;;;;;;11.57;75.19;100851.23;1783690;80;21026;-82
2022/07/07 03:47:54;;;;;;;4.70;2.57;;;;;;;11.66;75.32;100852.68;1784058;80;22066;-82
2022/07/07 03:50:21;;;;;;;3.37;2.30;;;;;;;11.72;75.36;100853.80;1783724;80;22100;-82
2022/07/07 03:52:49;;;;;;;8.57;2.23;;;;;;;11.74;75.14;100855.91;1783992;80;20990;-82
2022/07/07 03:55:16;;;;;;;4.67;2.43;;;;;;;11.85;75.51;100859.47;1783715;80;21014;-82
2022/07/07 03:57:43;;;;;;;4.87;2.12;;;;;;;11.96;75.53;100851.25;1783959;80;21483;-82
2022/07/07 04:00:12;;;;;;;4.10;2.05;;;;;;;12.03;75.38;100848.36;1783808;80;21551;-82
2022/07/07 04:02:40;;;;;;;6.42;3.12;;;;;;;12.13;75.46;100848.02;1784050;80;21101;-81
2022/07/07 04:05:08;;;;;;;4.33;2.20;;;;;;;12.20;75.31;100847.74;1783665;80;21001;-82
2022/07/07 04:07:35;;;;;;;6.23;2.93;;;;;;;12.25;75.16;100841.87;1783911;80;21434;-83
2022/07/07 04:10:04;;;;;;;4.03;2.33;;;;;;;12.27;75.14;100846.59;1783645;80;21025;-82
2022/07/07 04:12:31;;;;;;;3.10;2.12;;;;;;;12.34;75.32;100841.13;1783990;80;21001;-82
2022/07/07 04:14:58;;;;;;;3.20;2.22;;;;;;;12.40;75.18;100840.42;1783752;80;21287;-81
2022/07/07 04:17:25;;;;;;;4.45;2.00;;;;;;;12.45;75.17;100834.55;1783653;80;21006;-82
2022/07/07 04:19:52;;;;;;;5.65;2.60;;;;;;;12.53;75.15;100835.58;1783738;80;21538;-81
2022/07/07 04:22:19;;;;;;;4.78;2.30;;;;;;;12.56;75.14;100831.51;1762145;80;21029;-81
2022/07/07 04:24:46;;;;;;;5.03;2.12;;;;;;;12.61;74.96;100824.30;1766768;80;20993;-81
2022/07/07 04:27:13;;;;;;;4.40;2.05;;;;;;;12.66;74.90;100824.11;1779631;80;21073;-82
2022/07/07 04:29:40;;;;;;;3.55;1.95;;;;;;;12.70;74.78;100820.45;1783788;80;20934;-81
2022/07/07 04:32:09;;;;;;;3.67;2.30;;;;;;;12.78;74.73;100820.16;1783919;80;21060;-81
2022/07/07 04:34:35;;;;;;;6.78;2.05;;;;;;;12.84;74.70;100822.55;1784127;80;21014;-82
2022/07/07 04:37:03;;;;;;;3.12;2.00;;;;;;;12.88;74.44;100820.17;1783977;80;21010;-81
2022/07/07 04:39:30;;;;;;;3.30;2.20;;;;;;;12.94;74.60;100811.59;1783803;80;21109;-81
2022/07/07 04:41:57;;;;;;;7.03;2.10;;;;;;;13.01;74.60;100814.82;1783872;80;21061;-81
2022/07/07 04:44:24;;;;;;;2.90;2.00;;;;;;;13.10;74.54;100814.44;1783717;80;21030;-81
2022/07/07 04:46:52;;;;;;;4.22;1.82;;;;;;;13.15;74.35;100811.62;1783626;80;21076;-82
2022/07/07 04:49:19;;;;;;;3.35;2.00;;;;;;;13.19;74.16;100807.97;1783667;80;21053;-81
2022/07/07 04:51:47;;;;;;;2.95;2.00;;;;;;;13.27;74.27;100807.66;1783621;80;21113;-87
2022/07/07 04:54:14;;;;;;;3.12;1.60;;;;;;;13.34;74.33;100803.86;1783594;80;20993;-81
2022/07/07 04:56:41;;;;;;;3.20;2.50;;;;;;;13.43;74.58;100806.09;1783606;80;21467;-86
2022/07/07 04:59:08;;;;;;;3.33;2.12;;;;;;;13.54;74.83;100803.01;1783732;80;20999;-81
2022/07/07 05:01:35;;;;;;;5.42;3.08;;;;;;;13.63;74.67;100806.55;1783766;80;21032;-81
2022/07/07 05:04:02;;;;;;;6.05;2.50;;;;;;;13.70;74.24;100809.80;1783664;80;21119;-81
2022/07/07 05:06:29;;;;;;;2.90;2.12;;;;;;;13.75;74.19;100802.55;1783938;80;20994;-81
2022/07/07 05:08:56;;;;;;;3.95;2.37;;;;;;;13.83;74.27;100804.39;1765273;80;21045;-85
2022/07/07 05:11:23;;;;;;;3.35;2.25;;;;;;;13.90;74.24;100801.02;1763043;80;21041;-83
2022/07/07 05:13:50;;;;;;;3.98;2.42;;;;;;;13.95;74.24;100801.67;1776363;80;21700;-84
2022/07/07 05:16:17;;;;;;;3.27;2.50;;;;;;;14.03;74.29;100806.14;1761739;80;21203;-81
2022/07/07 05:18:44;;;;;;;5.45;2.52;;;;;;;14.11;74.27;100805.33;1771862;80;21399;-81
2022/07/07 05:21:12;;;;;;;4.62;2.40;;;;;;;14.18;74.22;100800.16;1763206;80;21521;-77
2022/07/07 05:23:38;;;;;;;4.80;2.55;;;;;;;14.24;74.22;100801.22;1760190;80;21048;-79
2022/07/07 05:26:06;;;;;;;4.03;2.30;;;;;;;14.29;74.17;100791.28;1754015;80;21112;-78
2022/07/07 05:28:36;;;;;;;3.30;1.90;;;;;;;14.39;74.14;100793.05;1767565;80;21959;-80
2022/07/07 05:31:02;;;;;;;4.83;1.67;;;;;;;14.47;73.63;100791.38;1760611;80;21036;-78
2022/07/07 05:33:29;;;;;;;3.90;1.50;;;;;;;14.60;73.38;100784.60;1764285;80;21486;-80
2022/07/07 05:35:57;;;;;;;4.97;2.00;;;;;;;14.70;72.86;100788.52;1754793;80;21037;-78
2022/07/07 05:38:24;;;;;;;4.83;1.57;;;;;;;14.78;72.46;100786.84;1753675;80;21048;-79
2022/07/07 05:40:51;;;;;;;4.53;1.50;;;;;;;14.87;72.30;100782.42;1756973;80;21146;-79
2022/07/07 05:43:18;;;;;;;3.55;1.47;;;;;;;14.94;71.83;100785.64;1758778;80;21530;-79
2022/07/07 05:45:46;;;;;;;5.20;1.60;;;;;;;15.03;71.58;100783.01;1760136;80;21477;-79
2022/07/07 05:48:14;;;;;;;3.75;1.72;;;;;;;15.09;71.26;100787.50;1758258;80;21040;-81
2022/07/07 05:50:42;;;;;;;4.40;1.52;;;;;;;15.14;71.10;100776.26;1762266;80;21451;-79
2022/07/07 05:53:09;;;;;;;4.30;1.52;;;;;;;15.22;70.85;100780.31;1760373;80;21241;-78
2022/07/07 05:55:36;;;;;;;3.22;1.50;;;;;;;15.28;70.53;100784.80;1764566;80;21045;-79
2022/07/07 05:58:03;;;;;;;3.62;1.30;;;;;;;15.37;70.32;100784.33;1754614;80;22204;-79
2022/07/07 06:00:30;;;;;;;4.95;1.75;;;;;;;15.48;70.15;100785.58;1756970;80;21755;-80
2022/07/07 06:02:57;;;;;;;3.22;1.50;;;;;;;15.57;70.01;100782.02;1757584;80;21044;-79
2022/07/07 06:05:24;;;;;;;5.60;1.52;;;;;;;15.68;69.93;100779.25;1761936;80;21936;-79
2022/07/07 06:07:51;;;;;;;3.33;1.42;;;;;;;15.80;69.72;100778.19;1753415;80;21009;-79
2022/07/07 06:10:18;;;;;;;3.15;1.20;;;;;;;15.93;69.45;100777.05;1759896;80;21108;-79
2022/07/07 06:12:45;;;;;;;2.27;1.40;;;;;;;16.09;69.16;100781.06;1761858;80;20957;-79
2022/07/07 06:15:12;;;;;;;4.28;1.47;;;;;;;16.23;68.87;100775.87;1760879;80;21068;-79
2022/07/07 06:17:40;;;;;;;3.90;1.37;;;;;;;16.37;68.43;100772.47;1753565;80;21388;-79
2022/07/07 06:20:08;;;;;;;2.65;1.27;;;;;;;16.51;68.11;100767.73;1755718;80;21021;-80
2022/07/07 06:22:35;;;;;;;3.15;1.35;;;;;;;16.62;67.75;100770.62;1773558;80;21037;-79
2022/07/07 06:25:03;;;;;;;4.65;1.60;;;;;;;16.72;67.41;100772.30;1764516;80;21013;-81
2022/07/07 06:27:29;;;;;;;2.72;1.00;;;;;;;16.81;67.06;100769.63;1754515;80;21091;-81
2022/07/07 06:29:57;;;;;;;6.83;1.40;;;;;;;16.90;66.73;100766.00;1754090;80;21123;-84
2022/07/07 06:32:24;;;;;;;2.80;0.80;;;;;;;17.04;66.28;100765.64;1754231;80;21029;-82
2022/07/07 06:34:51;;;;;;;3.15;0.82;;;;;;;17.13;65.89;100759.36;1769152;80;21045;-78
2022/07/07 06:37:18;;;;;;;3.70;0.80;;;;;;;17.24;65.25;100761.86;1760025;80;21032;-78
2022/07/07 06:39:45;;;;;;;2.87;0.70;;;;;;;17.35;64.90;100761.59;1756459;80;21342;-78
2022/07/07 06:42:12;;;;;;;3.27;1.00;;;;;;;17.46;64.37;100763.61;1755241;80;21205;-77
2022/07/07 06:44:41;;;;;;;5.50;0.80;;;;;;;17.56;63.58;100761.23;1773717;80;20941;-78
2022/07/07 06:47:08;;;;;;;2.80;0.90;;;;;;;17.66;63.25;100761.55;1753976;80;21068;-79
2022/07/07 06:49:35;;;;;;;3.08;0.82;;;;;;;17.72;62.58;100758.04;1768096;80;21522;-77
2022/07/07 06:52:02;;;;;;;2.95;0.80;;;;;;;17.80;62.19;100764.23;1772411;80;21116;-77
2022/07/07 06:54:29;;;;;;;4.40;0.75;;;;;;;17.86;61.88;100758.55;1757711;80;21088;-78
2022/07/07 06:56:57;;;;;;;2.25;0.93;;;;;;;17.90;61.25;100753.42;1767480;80;21614;-79
2022/07/07 06:59:24;;;;;;;3.33;0.88;;;;;;;17.93;60.71;100755.91;1771141;80;21564;-78
2022/07/07 07:01:51;;;;;;;2.58;0.80;;;;;;;18.01;60.53;100753.63;1751406;80;21019;-76
2022/07/07 07:04:18;;;;;;;3.15;0.88;;;;;;;18.09;60.22;100745.65;1749148;80;21033;-76
2022/07/07 07:06:45;;;;;;;2.05;0.80;;;;;;;18.17;60.06;100751.33;1753004;80;22318;-76
2022/07/07 07:09:13;;;;;;;5.47;1.00;;;;;;;18.24;59.66;100746.87;1757605;80;21045;-76
2022/07/07 07:11:40;;;;;;;3.50;0.80;;;;;;;18.30;59.10;100748.77;1757543;80;21993;-78
2022/07/07 07:14:07;;;;;;;4.85;0.85;;;;;;;18.33;58.68;100743.25;1759575;78;21081;-75
2022/07/07 07:16:34;;;;;;;2.55;0.72;;;;;;;18.37;58.37;100748.25;1748345;80;21113;-78
2022/07/07 07:19:01;;;;;;;2.87;0.80;;;;;;;18.39;57.88;100746.36;1745303;80;21174;-78
2022/07/07 07:21:28;;;;;;;1.50;0.80;;;;;;;18.44;57.61;100744.26;1753739;80;21465;-79
2022/07/07 07:23:55;;;;;;;5.53;0.82;;;;;;;18.52;57.44;100737.62;1761385;80;21493;-77
2022/07/07 07:26:22;;;;;;;4.87;0.80;;;;;;;18.58;57.34;100741.20;1751539;80;21025;-82
2022/07/07 07:28:49;;;;;;;2.87;0.47;;;;;;;18.64;56.91;100736.33;1745332;80;21514;-80
2022/07/07 07:31:16;;;;;;;3.90;0.68;;;;;;;18.77;56.77;100739.55;1762535;80;21093;-80
2022/07/07 07:33:43;;;;;;;4.50;0.57;;;;;;;18.82;56.16;100743.61;1752884;80;21017;-75
2022/07/07 07:36:11;;;;;;;1.55;0.50;;;;;;;18.92;56.01;100737.19;1746238;79;21042;-74
2022/07/07 07:38:39;;;;;;;2.95;0.70;;;;;;;19.00;55.58;100736.20;1755324;80;21037;-75
2022/07/07 07:41:10;;;;;;;1.70;0.55;;;;;;;19.01;55.00;100744.56;1747687;80;21044;-76
2022/07/07 07:43:38;;;;;;;5.53;0.60;;;;;;;19.03;54.64;100733.83;1757053;80;21107;-81
2022/07/07 07:46:06;;;;;;;3.50;0.78;;;;;;;19.08;54.38;100735.22;1747239;80;21081;-83
2022/07/07 07:48:33;;;;;;;1.47;0.42;;;;;;;19.19;54.30;100733.17;1759023;80;21036;-84
2022/07/07 07:51:00;;;;;;;1.82;0.82;;;;;;;19.29;54.13;100734.25;1749285;80;21045;-79
2022/07/07 07:53:27;;;;;;;2.75;0.60;;;;;;;19.38;54.07;100732.77;1761951;80;21026;-79
2022/07/07 07:55:54;;;;;;;2.33;0.70;;;;;;;19.41;53.64;100740.53;1751486;80;21092;-85
2022/07/07 07:58:21;;;;;;;3.47;0.80;;;;;;;19.31;52.99;100733.65;1747870;79;21029;-86
2022/07/07 08:00:48;;;;;;;4.75;0.90;;;;;;;19.22;53.04;100736.09;1754366;80;21718;-86
2022/07/07 08:03:15;;;;;;;2.83;0.90;;;;;;;19.17;53.37;100739.90;1756300;80;20949;-85
2022/07/07 08:05:42;;;;;;;4.80;0.93;;;;;;;19.16;53.45;100746.66;1747474;80;21037;-79
2022/07/07 08:08:09;;;;;;;3.05;0.95;;;;;;;19.09;53.45;100743.58;1751495;80;21524;-86
2022/07/07 08:10:36;;;;;;;3.17;0.72;;;;;;;19.01;53.40;100745.90;1747963;80;21021;-86
2022/07/07 08:13:06;;;;;;;1.70;0.68;;;;;;;19.02;53.80;100738.30;1767437;80;21633;-86
2022/07/07 08:15:32;;;;;;;3.95;0.70;;;;;;;19.11;53.87;100740.80;1745024;80;28734;-83
2022/07/07 08:18:00;;;;;;;3.70;1.00;;;;;;;19.19;54.01;100737.63;1751448;80;21041;-87
2022/07/07 08:20:27;;;;;;;4.53;1.00;;;;;;;19.25;53.63;100735.41;1763765;80;22086;-86
2022/07/07 08:22:54;;;;;;;3.20;0.80;;;;;;;19.29;53.69;100740.05;1745082;80;21021;-86
2022/07/07 08:25:21;;;;;;;2.30;0.93;;;;;;;19.32;53.28;100743.83;1752270;80;21021;-84
2022/07/07 08:27:48;;;;;;;1.95;0.70;;;;;;;19.27;53.17;100741.47;1763304;80;21054;-84
2022/07/07 08:30:15;;;;;;;3.05;0.70;;;;;;;19.32;53.28;100734.04;1752829;80;21561;-83
2022/07/07 08:32:45;;;;;;;6.53;0.80;;;;;;;19.41;53.30;100734.37;1766277;80;21827;-82
2022/07/07 08:35:12;;;;;;;9.88;0.85;;;;;;;19.39;52.94;100736.63;1756201;80;21487;-82
2022/07/07 08:37:39;;;;;;;4.03;0.90;;;;;;;19.37;52.85;100746.55;1747869;80;21550;-82
2022/07/07 08:40:06;;;;;;;3.87;0.72;;;;;;;19.29;52.59;100738.72;1758817;80;21084;-83
2022/07/07 08:42:33;;;;;;;6.90;0.70;;;;;;;19.24;52.56;100750.14;1749790;80;21499;-83
2022/07/07 08:45:00;;;;;;;2.75;0.60;;;;;;;19.11;52.06;100750.95;1761032;80;21186;-83
2022/07/07 08:47:27;;;;;;;0.70;0.30;;;;;;;19.01;51.96;100752.98;1752076;80;21025;-84
2022/07/07 08:49:54;;;;;;;2.20;0.40;;;;;;;18.87;52.03;100753.91;1766140;80;21085;-85
2022/07/07 08:52:21;;;;;;;2.35;0.65;;;;;;;18.79;52.02;100757.09;1754283;80;21029;-85
2022/07/07 08:54:48;;;;;;;2.10;0.80;;;;;;;18.60;51.95;100757.41;1754145;80;21085;-85
2022/07/07 08:57:16;;;;;;;3.98;0.60;;;;;;;18.47;52.62;100759.14;1755494;80;21207;-84
2022/07/07 08:59:43;;;;;;;4.78;0.60;;;;;;;18.33;52.85;100765.81;1747891;80;21077;-85
2022/07/07 09:02:10;;;;;;;2.15;0.50;;;;;;;18.17;53.18;100765.44;1759149;80;21533;-80
2022/07/07 09:04:37;;;;;;;3.17;0.57;;;;;;;17.97;53.82;100769.34;1749750;80;21053;-82
2022/07/07 09:07:06;;;;;;;2.75;0.90;;;;;;;17.80;54.38;100776.17;1761218;80;21522;-82
2022/07/07 09:09:40;;;;;;;1.75;0.70;;;;;;;17.67;55.56;100777.34;1751965;80;27819;-84
2022/07/07 09:12:10;;;;;;;2.10;0.80;;;;;;;17.60;56.05;100779.52;1762664;80;21057;-82
2022/07/07 09:14:47;;;;;;;3.50;0.88;;;;;;;17.50;56.74;100778.36;1752429;80;21022;-81
2022/07/07 09:17:27;;;;;;;3.27;0.90;;;;;;;17.40;57.47;100779.84;1762555;80;20990;-82
2022/07/07 09:20:10;;;;;;;1.57;0.70;;;;;;;17.37;58.11;100776.91;1750207;80;21061;-80
2022/07/07 09:22:43;;;;;;;4.95;1.05;;;;;;;17.43;59.02;100784.11;1766496;80;22567;-85
2022/07/07 09:25:10;;;;;;;1.90;0.90;;;;;;;17.43;58.50;100780.14;1754865;80;21331;-81
2022/07/07 09:28:02;;;;;;;2.77;0.82;;;;;;;17.38;58.56;100784.41;1761052;80;22065;-80
2022/07/07 09:30:41;;;;;;;2.05;0.68;;;;;;;17.30;58.25;100778.23;1767021;80;21681;-82
2022/07/07 09:33:11;;;;;;;4.60;0.85;;;;;;;17.26;58.16;100783.31;1751532;80;21474;-83
2022/07/07 09:38:30;;;;;;;2.47;0.70;;;;;;;17.30;57.99;100780.88;1748331;80;21515;-84
2022/07/07 09:41:12;;;;;;;1.80;0.70;;;;;;;17.35;57.53;100791.22;1760145;80;21072;-85
2022/07/07 09:43:52;;;;;;;1.12;0.40;;;;;;;17.37;57.57;100783.53;1757782;80;20953;-85
2022/07/07 09:46:23;;;;;;;;;;;;;;;17.38;57.34;100774.66;1760296;80;21029;-85
2022/07/07 09:48:58;;;;;;;1.67;0.40;;;;;;;17.42;57.23;100777.97;1746556;80;21346;-83
2022/07/07 09:51:33;;;;;;;4.78;0.80;;;;;;;17.49;57.22;100777.15;1756100;80;21530;-84
2022/07/07 09:54:05;;;;;;;2.45;0.70;;;;;;;17.54;56.67;100776.37;1755739;80;21092;-82
2022/07/07 09:56:39;;;;;;;2.40;0.60;;;;;;;17.53;56.38;100776.00;1756421;80;21436;-82
2022/07/07 09:59:10;;;;;;;0.85;0.30;;;;;;;17.56;56.14;100767.86;1745730;80;21322;-83
2022/07/07 10:01:41;;;;;;;2.20;0.47;;;;;;;17.55;56.14;100773.64;1755035;80;21128;-81
2022/07/07 10:04:26;;;;;;;1.60;0.45;;;;;;;17.61;55.97;100769.29;1746130;80;21069;-85
2022/07/07 10:06:54;;;;;;;2.77;0.47;;;;;;;17.68;55.96;100770.23;1759008;80;21433;-85
2022/07/07 10:09:25;;;;;;;5.15;0.78;;;;;;;17.80;56.00;100770.39;1766713;80;21041;-83
2022/07/07 10:11:55;;;;;;;1.42;0.40;;;;;;;17.92;55.79;100771.42;1756272;80;21073;-77
2022/07/07 10:14:37;;;;;;;1.72;0.50;;;;;;;17.99;55.45;100771.91;1746039;80;21131;-84
2022/07/07 10:17:04;;;;;;;3.72;0.50;;;;;;;18.04;55.26;100760.52;1745247;80;21052;-80
2022/07/07 10:19:31;;;;;;;1.32;0.40;;;;;;;18.14;55.40;100759.00;1736195;81;21017;-82
2022/07/07 10:22:00;;;;;;;1.15;0.60;;;;;;;18.25;55.26;100755.20;1741322;81;21092;-83
2022/07/07 10:24:31;;;;;;;1.60;0.47;;;;;;;18.35;54.95;100748.00;1753361;81;21578;-84
2022/07/07 10:27:03;;;;;;;2.65;0.80;;;;;;;18.46;55.07;100741.52;1761127;81;21119;-75
2022/07/07 10:29:50;;;;;;;1.00;0.50;;;;;;;18.59;54.93;100733.11;1768793;80;21008;-76
2022/07/07 10:32:25;;;;;;;1.90;0.60;;;;;;;18.77;54.84;100740.40;1768837;81;20997;-77
2022/07/07 10:34:56;;;;;;;1.45;0.50;;;;;;;18.92;54.29;100725.23;1756420;81;21001;-79
2022/07/07 10:37:26;;;;;;;2.15;0.50;;;;;;;19.03;53.64;100722.72;1768545;81;21032;-79
2022/07/07 10:39:56;;;;;;;1.45;0.40;;;;;;;19.11;53.52;100726.19;1768664;81;21091;-78
2022/07/07 10:42:44;;;;;;;1.37;0.50;;;;;;;19.32;53.63;100723.41;1768736;80;21032;-77
2022/07/07 10:45:11;;;;;;;6.20;0.60;;;;;;;19.60;53.07;100709.05;1768405;80;21005;-77
2022/07/07 10:47:38;;;;;;;3.42;0.50;;;;;;;19.88;52.58;100712.46;1753606;81;21510;-76
2022/07/07 10:50:22;;;;;;;1.57;0.50;;;;;;;20.15;52.00;100712.30;1768774;80;21005;-78
2022/07/07 10:52:49;;;;;;;1.47;0.50;;;;;;;20.37;51.59;100715.59;1767105;81;21221;-79
2022/07/07 10:55:16;;;;;;;1.37;0.30;;;;;;;20.66;51.09;100713.95;1768527;81;20970;-77
2022/07/07 10:57:46;;;;;;;0.80;0.30;;;;;;;21.04;51.29;100710.22;1769097;80;21021;-81
2022/07/07 11:00:31;;;;;;;3.00;0.50;;;;;;;21.32;50.64;100704.47;1768739;81;20997;-80
2022/07/07 11:03:13;;;;;;;1.65;0.33;;;;;;;21.46;50.49;100714.09;1768977;80;21076;-76
2022/07/07 11:05:45;;;;;;;3.58;0.50;;;;;;;21.34;49.79;100705.70;1768834;81;21914;-79
2022/07/07 11:08:15;;;;;;;2.50;0.50;;;;;;;21.50;50.07;100706.70;1768833;80;21037;-80
2022/07/07 11:10:47;;;;;;;1.80;0.50;;;;;;;21.70;49.58;100705.13;1754444;80;21017;-78
2022/07/07 11:13:30;;;;;;;1.72;0.50;;;;;;;21.70;49.38;100705.13;1738728;81;21444;-79
2022/07/07 11:16:13;;;;;;;3.02;0.50;;;;;;;21.76;49.40;100710.84;1738065;81;21439;-77
2022/07/07 11:18:43;;;;;;;3.27;0.50;;;;;;;21.85;49.18;100698.59;1756425;81;21320;-77
2022/07/07 11:21:10;;;;;;;1.50;0.60;;;;;;;21.92;48.65;100699.81;1740792;81;20917;-77
2022/07/07 11:23:56;;;;;;;1.98;0.57;;;;;;;22.00;48.71;100696.04;1738024;81;21040;-77
2022/07/07 11:26:26;;;;;;;3.12;0.62;;;;;;;22.12;48.46;100688.02;1739802;81;21573;-78
2022/07/07 11:28:55;;;;;;;;;;;;;;;22.17;48.30;100683.12;1741091;81;21040;-81
2022/07/07 11:31:22;;;;;;;2.15;0.40;;;;;;;22.33;48.01;100682.27;1738598;81;21117;-78
2022/07/07 11:33:55;;;;;;;2.60;0.53;;;;;;;22.36;47.99;100680.68;1738083;81;21021;-80
2022/07/07 11:36:27;;;;;;;2.22;0.53;;;;;;;22.34;47.86;100679.98;1738432;81;21001;-83